N816LP KBGR-KPVD
Flight info
| Callsign | N816LP |
|---|---|
| Flight time | 1h 1m |
| Altitude | 16000 |
| Route | KBGR LFV INNDY KPVD |
| Aircraft | B350/L-VGDW/C |
Departure
| Time | 2026-04-25 01:40 |
|---|---|
| Airport | Bangor International Airport (KBGR) |
Arrival
| Time | 2026-04-25 02:41 |
|---|---|
| Airport | Rhode Island T. F. Green International Airport (KPVD) |
| Time | Latitude | Longitude | Altitude | Speed | Heading |
|---|---|---|---|---|---|
| 2026-04-25 01:23 | 44.80374 | -68.81238 | 187 ft | 0 kts | 81° |
| 2026-04-25 01:28 | 44.80372 | -68.81256 | 200 ft | 3 kts | 81° |
| 2026-04-25 01:28 | 44.80369 | -68.81281 | 187 ft | 3 kts | 81° |
| 2026-04-25 01:28 | 44.80368 | -68.81285 | 194 ft | 0 kts | 81° |
| 2026-04-25 01:34 | 44.80313 | -68.81298 | 187 ft | 14 kts | 249° |
| 2026-04-25 01:34 | 44.80312 | -68.81440 | 187 ft | 7 kts | 287° |
| 2026-04-25 01:34 | 44.80310 | -68.81461 | 187 ft | 6 kts | 191° |
| 2026-04-25 01:34 | 44.80325 | -68.81378 | 199 ft | 15 kts | 63° |
| 2026-04-25 01:35 | 44.80306 | -68.81245 | 187 ft | 14 kts | 153° |
| 2026-04-25 01:35 | 44.80197 | -68.81240 | 190 ft | 15 kts | 169° |
| 2026-04-25 01:35 | 44.80159 | -68.81230 | 187 ft | 0 kts | 175° |
| 2026-04-25 01:36 | 44.80158 | -68.81230 | 187 ft | 2 kts | 175° |
| 2026-04-25 01:36 | 44.80107 | -68.81258 | 194 ft | 8 kts | 198° |
| 2026-04-25 01:36 | 44.80034 | -68.81180 | 186 ft | 19 kts | 134° |
| 2026-04-25 01:37 | 44.79931 | -68.81031 | 186 ft | 18 kts | 134° |
| 2026-04-25 01:37 | 44.79841 | -68.81011 | 186 ft | 5 kts | 214° |
| 2026-04-25 01:37 | 44.79782 | -68.81087 | 185 ft | 14 kts | 224° |
| 2026-04-25 01:37 | 44.79720 | -68.81206 | 181 ft | 14 kts | 258° |
| 2026-04-25 01:38 | 44.79719 | -68.81264 | 180 ft | 0 kts | 276° |
| 2026-04-25 01:39 | 44.79719 | -68.81266 | 180 ft | 2 kts | 276° |
| 2026-04-25 01:39 | 44.79728 | -68.81346 | 179 ft | 12 kts | 294° |
| 2026-04-25 01:39 | 44.79753 | -68.81388 | 179 ft | 7 kts | 315° |
| 2026-04-25 01:39 | 44.80065 | -68.81836 | 210 ft | 111 kts | 314° |
| 2026-04-25 01:40 | 44.80665 | -68.82843 | 512 ft | 150 kts | 313° |
| 2026-04-25 01:40 | 44.81399 | -68.84014 | 915 ft | 172 kts | 315° |
| 2026-04-25 01:40 | 44.82428 | -68.84893 | 1349 ft | 181 kts | 345° |
| 2026-04-25 01:40 | 44.83664 | -68.85469 | 1746 ft | 191 kts | 344° |
| 2026-04-25 01:41 | 44.84951 | -68.86058 | 2135 ft | 197 kts | 345° |
| 2026-04-25 01:41 | 44.86268 | -68.86650 | 2532 ft | 200 kts | 346° |
| 2026-04-25 01:41 | 44.87606 | -68.87249 | 2936 ft | 202 kts | 345° |
| 2026-04-25 01:41 | 44.88955 | -68.87857 | 3343 ft | 204 kts | 345° |
| 2026-04-25 01:42 | 44.90317 | -68.88475 | 3731 ft | 206 kts | 345° |
| 2026-04-25 01:42 | 44.91689 | -68.89106 | 4129 ft | 208 kts | 345° |
| 2026-04-25 01:42 | 44.93065 | -68.89742 | 4528 ft | 209 kts | 345° |
| 2026-04-25 01:42 | 44.94448 | -68.90401 | 4934 ft | 211 kts | 342° |
| 2026-04-25 01:43 | 44.95620 | -68.91673 | 5328 ft | 217 kts | 317° |
| 2026-04-25 01:43 | 44.96636 | -68.93262 | 5724 ft | 219 kts | 316° |
| 2026-04-25 01:43 | 44.97638 | -68.94887 | 6130 ft | 220 kts | 315° |
| 2026-04-25 01:43 | 44.98636 | -68.96529 | 6531 ft | 221 kts | 315° |
| 2026-04-25 01:44 | 44.99632 | -68.98184 | 6913 ft | 221 kts | 315° |
| 2026-04-25 01:44 | 45.00623 | -68.99852 | 7296 ft | 222 kts | 314° |
| 2026-04-25 01:44 | 45.01611 | -69.01530 | 7692 ft | 222 kts | 314° |
| 2026-04-25 01:44 | 45.02599 | -69.03219 | 8075 ft | 223 kts | 314° |
| 2026-04-25 01:45 | 45.03586 | -69.04921 | 8468 ft | 224 kts | 314° |
| 2026-04-25 01:45 | 45.04557 | -69.06610 | 8862 ft | 225 kts | 314° |
| 2026-04-25 01:45 | 45.05404 | -69.08483 | 9271 ft | 233 kts | 291° |
| 2026-04-25 01:45 | 45.05303 | -69.10790 | 9683 ft | 245 kts | 249° |
| 2026-04-25 01:46 | 45.04181 | -69.12598 | 10079 ft | 251 kts | 210° |
| 2026-04-25 01:46 | 45.02526 | -69.13328 | 10455 ft | 250 kts | 188° |
| 2026-04-25 01:46 | 45.00805 | -69.13723 | 10832 ft | 251 kts | 186° |
| 2026-04-25 01:46 | 44.99069 | -69.14079 | 11219 ft | 252 kts | 186° |
| 2026-04-25 01:47 | 44.97323 | -69.14435 | 11607 ft | 254 kts | 186° |
| 2026-04-25 01:47 | 44.95569 | -69.14790 | 11996 ft | 255 kts | 186° |
| 2026-04-25 01:47 | 44.93831 | -69.15206 | 12390 ft | 257 kts | 192° |
| 2026-04-25 01:47 | 44.92081 | -69.15821 | 12789 ft | 259 kts | 192° |
| 2026-04-25 01:48 | 44.90316 | -69.16367 | 13197 ft | 260 kts | 190° |
| 2026-04-25 01:48 | 44.88539 | -69.16923 | 13609 ft | 262 kts | 191° |
| 2026-04-25 01:48 | 44.86758 | -69.17500 | 14004 ft | 263 kts | 191° |
| 2026-04-25 01:48 | 44.84963 | -69.18064 | 14374 ft | 265 kts | 191° |
| 2026-04-25 01:49 | 44.83162 | -69.18634 | 14744 ft | 266 kts | 192° |
| 2026-04-25 01:49 | 44.81373 | -69.19205 | 15118 ft | 267 kts | 192° |
| 2026-04-25 01:49 | 44.79552 | -69.19779 | 15506 ft | 269 kts | 192° |
| 2026-04-25 01:49 | 44.77707 | -69.20364 | 15774 ft | 275 kts | 192° |
| 2026-04-25 01:50 | 44.75802 | -69.20970 | 15887 ft | 285 kts | 192° |
| 2026-04-25 01:50 | 44.73835 | -69.21592 | 15943 ft | 294 kts | 193° |
| 2026-04-25 01:50 | 44.71814 | -69.22231 | 15965 ft | 301 kts | 193° |
| 2026-04-25 01:50 | 44.69751 | -69.22882 | 15983 ft | 306 kts | 193° |
| 2026-04-25 01:51 | 44.67685 | -69.23534 | 15985 ft | 309 kts | 193° |
| 2026-04-25 01:51 | 44.65575 | -69.24199 | 15987 ft | 312 kts | 193° |
| 2026-04-25 01:51 | 44.63449 | -69.24867 | 15987 ft | 313 kts | 193° |
| 2026-04-25 01:51 | 44.61317 | -69.25540 | 15986 ft | 314 kts | 193° |
| 2026-04-25 01:52 | 44.59179 | -69.26212 | 15988 ft | 315 kts | 193° |
| 2026-04-25 01:52 | 44.57760 | -69.26656 | 15987 ft | 315 kts | 193° |
| 2026-04-25 01:52 | 44.55614 | -69.27332 | 15993 ft | 316 kts | 193° |
| 2026-04-25 01:52 | 44.53468 | -69.28005 | 15992 ft | 316 kts | 193° |
| 2026-04-25 01:53 | 44.51316 | -69.28680 | 15995 ft | 317 kts | 194° |
| 2026-04-25 01:53 | 44.49161 | -69.29357 | 15989 ft | 317 kts | 194° |
| 2026-04-25 01:53 | 44.47002 | -69.30033 | 15993 ft | 317 kts | 194° |
| 2026-04-25 01:53 | 44.44848 | -69.30707 | 15992 ft | 318 kts | 194° |
| 2026-04-25 01:54 | 44.42691 | -69.31383 | 15988 ft | 318 kts | 194° |
| 2026-04-25 01:54 | 44.40557 | -69.32048 | 15994 ft | 318 kts | 194° |
| 2026-04-25 01:54 | 44.38401 | -69.32723 | 15991 ft | 318 kts | 194° |
| 2026-04-25 01:54 | 44.36238 | -69.33397 | 15992 ft | 318 kts | 194° |
| 2026-04-25 01:55 | 44.34077 | -69.34072 | 15987 ft | 319 kts | 194° |
| 2026-04-25 01:55 | 44.31915 | -69.34745 | 15991 ft | 318 kts | 194° |
| 2026-04-25 01:55 | 44.29750 | -69.35420 | 15997 ft | 319 kts | 194° |
| 2026-04-25 01:55 | 44.27581 | -69.36094 | 15993 ft | 319 kts | 194° |
| 2026-04-25 01:56 | 44.25412 | -69.36769 | 15995 ft | 319 kts | 194° |
| 2026-04-25 01:56 | 44.23243 | -69.37443 | 15993 ft | 319 kts | 194° |
| 2026-04-25 01:56 | 44.21077 | -69.38115 | 15993 ft | 319 kts | 195° |
| 2026-04-25 01:56 | 44.18908 | -69.38789 | 15997 ft | 319 kts | 195° |
| 2026-04-25 01:57 | 44.14584 | -69.40128 | 15996 ft | 320 kts | 195° |
| 2026-04-25 01:57 | 44.12411 | -69.40802 | 15995 ft | 320 kts | 195° |
| 2026-04-25 01:57 | 44.10233 | -69.41474 | 15996 ft | 320 kts | 195° |
| 2026-04-25 01:58 | 44.08053 | -69.42149 | 15989 ft | 321 kts | 195° |
| 2026-04-25 01:58 | 44.05874 | -69.42820 | 16005 ft | 321 kts | 195° |
| 2026-04-25 01:58 | 44.03697 | -69.43493 | 16004 ft | 321 kts | 195° |
| 2026-04-25 01:58 | 44.01513 | -69.44167 | 16011 ft | 321 kts | 195° |
| 2026-04-25 01:59 | 43.99328 | -69.44839 | 16006 ft | 321 kts | 196° |
| 2026-04-25 01:59 | 43.97147 | -69.45512 | 16006 ft | 321 kts | 196° |
| 2026-04-25 01:59 | 43.94966 | -69.46183 | 16010 ft | 321 kts | 196° |
| 2026-04-25 01:59 | 43.92808 | -69.46846 | 16009 ft | 321 kts | 196° |
| 2026-04-25 02:00 | 43.90625 | -69.47516 | 16007 ft | 321 kts | 196° |
| 2026-04-25 02:00 | 43.88442 | -69.48187 | 16009 ft | 321 kts | 196° |
| 2026-04-25 02:00 | 43.86259 | -69.48857 | 16014 ft | 321 kts | 196° |
| 2026-04-25 02:00 | 43.84076 | -69.49526 | 16015 ft | 321 kts | 196° |
| 2026-04-25 02:01 | 43.81892 | -69.50194 | 16012 ft | 321 kts | 196° |
| 2026-04-25 02:01 | 43.79708 | -69.50863 | 16011 ft | 321 kts | 196° |
| 2026-04-25 02:01 | 43.77525 | -69.51530 | 16008 ft | 321 kts | 197° |
| 2026-04-25 02:01 | 43.75345 | -69.52198 | 16010 ft | 321 kts | 197° |
| 2026-04-25 02:02 | 43.73157 | -69.52865 | 16008 ft | 321 kts | 197° |
| 2026-04-25 02:02 | 43.70978 | -69.53530 | 15997 ft | 321 kts | 197° |
| 2026-04-25 02:02 | 43.68821 | -69.54190 | 15999 ft | 321 kts | 197° |
| 2026-04-25 02:02 | 43.66639 | -69.54854 | 15997 ft | 321 kts | 197° |
| 2026-04-25 02:03 | 43.64456 | -69.55518 | 15996 ft | 321 kts | 197° |
| 2026-04-25 02:03 | 43.62273 | -69.56182 | 15996 ft | 321 kts | 197° |
| 2026-04-25 02:03 | 43.60094 | -69.56844 | 15993 ft | 321 kts | 197° |
| 2026-04-25 02:03 | 43.57914 | -69.57506 | 15991 ft | 321 kts | 197° |
| 2026-04-25 02:04 | 43.55729 | -69.58169 | 15993 ft | 321 kts | 197° |
| 2026-04-25 02:04 | 43.53550 | -69.58830 | 15991 ft | 321 kts | 197° |
| 2026-04-25 02:04 | 43.51372 | -69.59491 | 15989 ft | 320 kts | 197° |
| 2026-04-25 02:04 | 43.49195 | -69.60150 | 15990 ft | 320 kts | 197° |
| 2026-04-25 02:05 | 43.47019 | -69.60808 | 15991 ft | 320 kts | 197° |
| 2026-04-25 02:05 | 43.44870 | -69.61459 | 15985 ft | 320 kts | 197° |
| 2026-04-25 02:05 | 43.42697 | -69.62115 | 15987 ft | 320 kts | 197° |
| 2026-04-25 02:05 | 43.40518 | -69.62773 | 15987 ft | 320 kts | 197° |
| 2026-04-25 02:06 | 43.38344 | -69.63430 | 15992 ft | 319 kts | 197° |
| 2026-04-25 02:06 | 43.36173 | -69.64084 | 15987 ft | 319 kts | 198° |
| 2026-04-25 02:06 | 43.34005 | -69.64738 | 15987 ft | 319 kts | 198° |
| 2026-04-25 02:06 | 43.31835 | -69.65391 | 15988 ft | 319 kts | 198° |
| 2026-04-25 02:07 | 43.29665 | -69.66044 | 15986 ft | 319 kts | 198° |
| 2026-04-25 02:07 | 43.27498 | -69.66696 | 15989 ft | 319 kts | 198° |
| 2026-04-25 02:07 | 43.25334 | -69.67346 | 15986 ft | 319 kts | 198° |
| 2026-04-25 02:07 | 43.23166 | -69.67996 | 15987 ft | 318 kts | 198° |
| 2026-04-25 02:08 | 43.21001 | -69.68646 | 15987 ft | 319 kts | 198° |
| 2026-04-25 02:08 | 43.18838 | -69.69294 | 15987 ft | 318 kts | 198° |
| 2026-04-25 02:08 | 43.16672 | -69.69944 | 15988 ft | 318 kts | 198° |
| 2026-04-25 02:08 | 43.14509 | -69.70591 | 15990 ft | 318 kts | 198° |
| 2026-04-25 02:09 | 43.12344 | -69.71238 | 15993 ft | 318 kts | 198° |
| 2026-04-25 02:09 | 43.10181 | -69.71885 | 15993 ft | 318 kts | 198° |
| 2026-04-25 02:09 | 43.08018 | -69.72532 | 15988 ft | 318 kts | 198° |
| 2026-04-25 02:09 | 43.05882 | -69.73169 | 15987 ft | 318 kts | 198° |
| 2026-04-25 02:10 | 43.03718 | -69.73815 | 15995 ft | 318 kts | 198° |
| 2026-04-25 02:10 | 43.01556 | -69.74459 | 15992 ft | 318 kts | 198° |
| 2026-04-25 02:10 | 42.99391 | -69.75104 | 15988 ft | 318 kts | 198° |
| 2026-04-25 02:10 | 42.97222 | -69.75749 | 15986 ft | 318 kts | 198° |
| 2026-04-25 02:11 | 42.95062 | -69.76391 | 15986 ft | 318 kts | 198° |
| 2026-04-25 02:11 | 42.92899 | -69.77035 | 15984 ft | 318 kts | 198° |
| 2026-04-25 02:11 | 42.90731 | -69.77679 | 15985 ft | 318 kts | 198° |
| 2026-04-25 02:11 | 42.88572 | -69.78320 | 15985 ft | 318 kts | 198° |
| 2026-04-25 02:12 | 42.86440 | -69.78952 | 15986 ft | 318 kts | 199° |
| 2026-04-25 02:12 | 42.84279 | -69.79592 | 15985 ft | 318 kts | 199° |
| 2026-04-25 02:12 | 42.82119 | -69.80233 | 15985 ft | 318 kts | 199° |
| 2026-04-25 02:12 | 42.79961 | -69.80871 | 15985 ft | 317 kts | 199° |
| 2026-04-25 02:13 | 42.77804 | -69.81508 | 15993 ft | 317 kts | 199° |
| 2026-04-25 02:13 | 42.75647 | -69.82143 | 15998 ft | 317 kts | 199° |
| 2026-04-25 02:13 | 42.73489 | -69.82787 | 15996 ft | 317 kts | 199° |
| 2026-04-25 02:13 | 42.71333 | -69.83419 | 15998 ft | 317 kts | 199° |
| 2026-04-25 02:14 | 42.69178 | -69.84055 | 15998 ft | 317 kts | 199° |
| 2026-04-25 02:14 | 42.67019 | -69.84692 | 15999 ft | 317 kts | 199° |
| 2026-04-25 02:14 | 42.64866 | -69.85324 | 15999 ft | 317 kts | 199° |
| 2026-04-25 02:14 | 42.62710 | -69.85960 | 15998 ft | 317 kts | 199° |
| 2026-04-25 02:15 | 42.60549 | -69.86595 | 16002 ft | 317 kts | 199° |
| 2026-04-25 02:15 | 42.58394 | -69.87229 | 15999 ft | 317 kts | 199° |
| 2026-04-25 02:15 | 42.56242 | -69.87860 | 15999 ft | 317 kts | 199° |
| 2026-04-25 02:15 | 42.54085 | -69.88493 | 15998 ft | 317 kts | 199° |
| 2026-04-25 02:16 | 42.51956 | -69.89118 | 15997 ft | 316 kts | 199° |
| 2026-04-25 02:16 | 42.49803 | -69.89748 | 15998 ft | 316 kts | 199° |
| 2026-04-25 02:16 | 42.47652 | -69.90373 | 15996 ft | 316 kts | 199° |
| 2026-04-25 02:16 | 42.45500 | -69.91013 | 16000 ft | 316 kts | 199° |
| 2026-04-25 02:17 | 42.43344 | -69.91640 | 15995 ft | 316 kts | 199° |
| 2026-04-25 02:17 | 42.41186 | -69.92266 | 15995 ft | 316 kts | 199° |
| 2026-04-25 02:17 | 42.39037 | -69.92896 | 15996 ft | 316 kts | 199° |
| 2026-04-25 02:17 | 42.36887 | -69.93525 | 15995 ft | 316 kts | 199° |
| 2026-04-25 02:18 | 42.34734 | -69.94151 | 15998 ft | 316 kts | 199° |
| 2026-04-25 02:18 | 42.32585 | -69.94779 | 15999 ft | 316 kts | 199° |
| 2026-04-25 02:18 | 42.30430 | -69.95405 | 16002 ft | 316 kts | 199° |
| 2026-04-25 02:18 | 42.28280 | -69.96031 | 16006 ft | 316 kts | 199° |
| 2026-04-25 02:19 | 42.26158 | -69.96649 | 16005 ft | 316 kts | 199° |
| 2026-04-25 02:19 | 42.24005 | -69.97273 | 16009 ft | 316 kts | 199° |
| 2026-04-25 02:19 | 42.21856 | -69.97897 | 16010 ft | 316 kts | 199° |
| 2026-04-25 02:19 | 42.19705 | -69.98521 | 16013 ft | 316 kts | 200° |
| 2026-04-25 02:20 | 42.17555 | -69.99145 | 16013 ft | 316 kts | 200° |
| 2026-04-25 02:20 | 42.15411 | -69.99767 | 15936 ft | 311 kts | 200° |
| 2026-04-25 02:20 | 42.13330 | -70.00371 | 15539 ft | 302 kts | 199° |
| 2026-04-25 02:20 | 42.11288 | -70.00954 | 15135 ft | 297 kts | 199° |
| 2026-04-25 02:21 | 42.09382 | -70.01777 | 14737 ft | 277 kts | 221° |
| 2026-04-25 02:21 | 42.08186 | -70.03557 | 14358 ft | 243 kts | 258° |
| 2026-04-25 02:21 | 42.08060 | -70.05656 | 13972 ft | 219 kts | 287° |
| 2026-04-25 02:21 | 42.07989 | -70.07727 | 13567 ft | 238 kts | 256° |
| 2026-04-25 02:22 | 42.06841 | -70.09463 | 13133 ft | 262 kts | 224° |
| 2026-04-25 02:22 | 42.05560 | -70.11076 | 12696 ft | 242 kts | 251° |
| 2026-04-25 02:22 | 42.05217 | -70.13151 | 12273 ft | 223 kts | 276° |
| 2026-04-25 02:22 | 42.05202 | -70.15210 | 11856 ft | 222 kts | 278° |
| 2026-04-25 02:23 | 42.05232 | -70.17283 | 11448 ft | 221 kts | 279° |
| 2026-04-25 02:23 | 42.05277 | -70.19325 | 11220 ft | 215 kts | 279° |
| 2026-04-25 02:23 | 42.05322 | -70.21359 | 11121 ft | 225 kts | 279° |
| 2026-04-25 02:23 | 42.05379 | -70.23520 | 11072 ft | 236 kts | 279° |
| 2026-04-25 02:24 | 42.05453 | -70.25756 | 11046 ft | 242 kts | 279° |
| 2026-04-25 02:24 | 42.05542 | -70.28052 | 10851 ft | 251 kts | 280° |
| 2026-04-25 02:24 | 42.05647 | -70.30434 | 10577 ft | 258 kts | 280° |
| 2026-04-25 02:24 | 42.05763 | -70.32861 | 10249 ft | 262 kts | 280° |
| 2026-04-25 02:25 | 42.05880 | -70.35194 | 9870 ft | 246 kts | 280° |
| 2026-04-25 02:25 | 42.05974 | -70.37438 | 9451 ft | 236 kts | 278° |
| 2026-04-25 02:25 | 42.05641 | -70.39609 | 9043 ft | 242 kts | 255° |
| 2026-04-25 02:25 | 42.04970 | -70.41677 | 8673 ft | 239 kts | 253° |
| 2026-04-25 02:26 | 42.04285 | -70.43707 | 8361 ft | 237 kts | 253° |
| 2026-04-25 02:26 | 42.03598 | -70.45712 | 8021 ft | 235 kts | 252° |
| 2026-04-25 02:26 | 42.03006 | -70.47735 | 7715 ft | 230 kts | 259° |
| 2026-04-25 02:26 | 42.02497 | -70.49778 | 7400 ft | 230 kts | 257° |
| 2026-04-25 02:27 | 42.01939 | -70.51793 | 7096 ft | 229 kts | 256° |
| 2026-04-25 02:27 | 42.01401 | -70.53804 | 6794 ft | 228 kts | 257° |
| 2026-04-25 02:27 | 42.00870 | -70.55808 | 6492 ft | 228 kts | 256° |
| 2026-04-25 02:27 | 42.00329 | -70.57810 | 6173 ft | 228 kts | 256° |
| 2026-04-25 02:28 | 41.99790 | -70.59814 | 5855 ft | 228 kts | 255° |
| 2026-04-25 02:28 | 41.99250 | -70.61830 | 5536 ft | 230 kts | 255° |
| 2026-04-25 02:28 | 41.98711 | -70.63828 | 5217 ft | 231 kts | 254° |
| 2026-04-25 02:28 | 41.98164 | -70.65860 | 4905 ft | 232 kts | 253° |
| 2026-04-25 02:29 | 41.97614 | -70.67902 | 4586 ft | 233 kts | 253° |
| 2026-04-25 02:29 | 41.97041 | -70.70013 | 4276 ft | 247 kts | 253° |
| 2026-04-25 02:29 | 41.96457 | -70.72219 | 3956 ft | 251 kts | 252° |
| 2026-04-25 02:29 | 41.95853 | -70.74425 | 3643 ft | 253 kts | 251° |
| 2026-04-25 02:30 | 41.95248 | -70.76663 | 3328 ft | 255 kts | 251° |
| 2026-04-25 02:30 | 41.94643 | -70.78892 | 3145 ft | 251 kts | 251° |
| 2026-04-25 02:30 | 41.94044 | -70.81075 | 3064 ft | 250 kts | 250° |
| 2026-04-25 02:30 | 41.93451 | -70.83277 | 3028 ft | 257 kts | 251° |
| 2026-04-25 02:31 | 41.92840 | -70.85545 | 3014 ft | 257 kts | 250° |
| 2026-04-25 02:31 | 41.92237 | -70.87772 | 3004 ft | 252 kts | 250° |
| 2026-04-25 02:31 | 41.91628 | -70.89978 | 3012 ft | 254 kts | 250° |
| 2026-04-25 02:31 | 41.91028 | -70.92203 | 3013 ft | 252 kts | 251° |
| 2026-04-25 02:32 | 41.90430 | -70.94409 | 3012 ft | 249 kts | 250° |
| 2026-04-25 02:32 | 41.89827 | -70.96582 | 3013 ft | 248 kts | 250° |
| 2026-04-25 02:32 | 41.89240 | -70.98759 | 3008 ft | 247 kts | 250° |
| 2026-04-25 02:32 | 41.88646 | -71.00924 | 3009 ft | 246 kts | 250° |
| 2026-04-25 02:33 | 41.88065 | -71.03050 | 3011 ft | 245 kts | 250° |
| 2026-04-25 02:33 | 41.87479 | -71.05195 | 3011 ft | 245 kts | 250° |
| 2026-04-25 02:33 | 41.86890 | -71.07345 | 3010 ft | 244 kts | 249° |
| 2026-04-25 02:33 | 41.86290 | -71.09473 | 3007 ft | 244 kts | 245° |
| 2026-04-25 02:34 | 41.85268 | -71.11262 | 3013 ft | 241 kts | 230° |
| 2026-04-25 02:34 | 41.84558 | -71.13272 | 3016 ft | 243 kts | 262° |
| 2026-04-25 02:34 | 41.84567 | -71.15538 | 3010 ft | 244 kts | 274° |
| 2026-04-25 02:34 | 41.84734 | -71.17798 | 3005 ft | 244 kts | 280° |
| 2026-04-25 02:35 | 41.85063 | -71.20030 | 3001 ft | 244 kts | 281° |
| 2026-04-25 02:35 | 41.85472 | -71.22235 | 3003 ft | 244 kts | 289° |
| 2026-04-25 02:35 | 41.86114 | -71.24349 | 2711 ft | 254 kts | 297° |
| 2026-04-25 02:35 | 41.87019 | -71.26279 | 2468 ft | 230 kts | 305° |
| 2026-04-25 02:36 | 41.87957 | -71.27861 | 2365 ft | 206 kts | 310° |
| 2026-04-25 02:36 | 41.88853 | -71.29243 | 2316 ft | 187 kts | 311° |
| 2026-04-25 02:36 | 41.88661 | -71.30245 | 2333 ft | 148 kts | 171° |
| 2026-04-25 02:36 | 41.87807 | -71.30161 | 3519 ft | 99 kts | 191° |
| 2026-04-25 02:37 | 41.87049 | -71.30631 | 3532 ft | 140 kts | 211° |
| 2026-04-25 02:37 | 41.86202 | -71.31286 | 3210 ft | 141 kts | 212° |
| 2026-04-25 02:37 | 41.85396 | -71.32001 | 2984 ft | 133 kts | 210° |
| 2026-04-25 02:37 | 41.84612 | -71.32664 | 2542 ft | 137 kts | 212° |
| 2026-04-25 02:38 | 41.83782 | -71.33411 | 2041 ft | 145 kts | 213° |
| 2026-04-25 02:38 | 41.82974 | -71.34201 | 1610 ft | 145 kts | 223° |
| 2026-04-25 02:38 | 41.82165 | -71.35003 | 1080 ft | 146 kts | 204° |
| 2026-04-25 02:38 | 41.81166 | -71.35576 | 790 ft | 167 kts | 202° |
| 2026-04-25 02:39 | 41.80053 | -71.36247 | 588 ft | 181 kts | 207° |
| 2026-04-25 02:39 | 41.78990 | -71.37124 | 535 ft | 175 kts | 215° |
| 2026-04-25 02:39 | 41.78340 | -71.37748 | 514 ft | 174 kts | 215° |
| 2026-04-25 02:39 | 41.76990 | -71.38892 | 524 ft | 173 kts | 207° |
| 2026-04-25 02:40 | 41.76287 | -71.39405 | 479 ft | 168 kts | 211° |
| 2026-04-25 02:40 | 41.75402 | -71.40171 | 337 ft | 147 kts | 214° |
| 2026-04-25 02:40 | 41.74563 | -71.40846 | 266 ft | 135 kts | 208° |
| 2026-04-25 02:40 | 41.73773 | -71.41484 | 202 ft | 131 kts | 211° |
| 2026-04-25 02:41 | 41.73007 | -71.42131 | 75 ft | 123 kts | 209° |
| 2026-04-25 02:41 | 41.72374 | -71.42655 | 56 ft | 84 kts | 212° |
| 2026-04-25 02:41 | 41.72020 | -71.42958 | 53 ft | 46 kts | 217° |
| 2026-04-25 02:41 | 41.71822 | -71.43153 | 51 ft | 29 kts | 241° |
| 2026-04-25 02:42 | 41.71833 | -71.43264 | 51 ft | 5 kts | 307° |
| 2026-04-25 02:42 | 41.71897 | -71.43296 | 52 ft | 17 kts | 47° |
| 2026-04-25 02:42 | 41.72003 | -71.43152 | 50 ft | 25 kts | 34° |
| 2026-04-25 02:42 | 41.72161 | -71.43008 | 53 ft | 30 kts | 32° |
| 2026-04-25 02:43 | 41.72339 | -71.42862 | 53 ft | 31 kts | 31° |
| 2026-04-25 02:43 | 41.72481 | -71.42747 | 54 ft | 19 kts | 32° |
| 2026-04-25 02:43 | 41.72538 | -71.42699 | 51 ft | 5 kts | 31° |
| 2026-04-25 02:43 | 41.72639 | -71.42612 | 51 ft | 29 kts | 34° |
| 2026-04-25 02:44 | 41.72792 | -71.42631 | 54 ft | 27 kts | 328° |
| 2026-04-25 02:44 | 41.72983 | -71.42708 | 55 ft | 28 kts | 347° |
| 2026-04-25 02:44 | 41.73138 | -71.42756 | 58 ft | 9 kts | 339° |
| 2026-04-25 02:44 | 41.73168 | -71.42870 | 58 ft | 19 kts | 271° |
| 2026-04-25 02:45 | 41.73198 | -71.43009 | 59 ft | 6 kts | 334° |
| 2026-04-25 02:45 | 41.73220 | -71.43031 | 59 ft | 4 kts | 270° |
| 2026-04-25 02:45 | 41.73209 | -71.43039 | 54 ft | 0 kts | 144° |